Time;durP1;ratioP1;P1;durP2;ratioP2;P2;SDS_P1;SDS_P2;PMS_P1;PMS_P2;Temp;Humidity;BMP_temperature;BMP_pressure;BME280_temperature;BME280_humidity;BME280_pressure;Samples;Min_cycle;Max_cycle;Signal;HPM_P1;HPM_P2
2022/11/23 00:00:38;;;;;;;8.40;4.20;;;7.80;99.90;;;;;;5055773;28;20021;-69
2022/11/23 00:03:03;;;;;;;12.82;5.88;;;7.80;99.90;;;;;;5056749;28;20040;-69
2022/11/23 00:05:30;;;;;;;13.88;4.50;;;7.70;99.90;;;;;;5057202;28;20067;-69
2022/11/23 00:07:55;;;;;;;9.25;4.43;;;7.70;99.90;;;;;;5057371;28;20079;-69
2022/11/23 00:10:21;;;;;;;14.20;4.57;;;7.80;99.90;;;;;;5058080;28;20419;-69
2022/11/23 00:12:47;;;;;;;9.00;4.38;;;7.70;99.90;;;;;;5055407;28;20021;-69
2022/11/23 00:15:14;;;;;;;12.88;4.20;;;7.80;99.90;;;;;;5056849;28;20495;-69
2022/11/23 00:17:39;;;;;;;11.60;4.18;;;7.80;99.90;;;;;;5056500;28;20028;-69
2022/11/23 00:20:07;;;;;;;14.15;4.20;;;7.70;99.90;;;;;;5055375;28;20021;-69
2022/11/23 00:22:33;;;;;;;14.02;4.78;;;7.70;99.90;;;;;;5056656;28;20025;-69
2022/11/23 00:24:58;;;;;;;9.25;3.88;;;7.80;99.90;;;;;;5056918;28;20040;-69
2022/11/23 00:27:24;;;;;;;9.07;4.18;;;7.70;99.90;;;;;;5056358;28;20021;-69
2022/11/23 00:29:49;;;;;;;8.05;3.55;;;7.70;99.90;;;;;;5055624;28;20025;-69
2022/11/23 00:32:15;;;;;;;10.52;3.53;;;7.70;99.90;;;;;;5056602;28;20480;-69
2022/11/23 00:34:57;;;;;;;8.25;4.35;;;7.70;99.90;;;;;;5055641;28;20021;-71
2022/11/23 00:37:22;;;;;;;21.88;4.45;;;7.60;99.90;;;;;;5056989;28;20116;-71
2022/11/23 00:39:48;;;;;;;12.00;3.70;;;7.60;99.90;;;;;;5056713;28;20071;-71
2022/11/23 00:42:13;;;;;;;7.65;3.60;;;7.60;99.90;;;;;;5056837;28;20033;-71
2022/11/23 00:44:39;;;;;;;10.55;3.95;;;7.70;99.90;;;;;;5056133;28;20025;-71
2022/11/23 00:47:04;;;;;;;11.80;3.85;;;7.80;99.90;;;;;;5054839;28;20028;-71
2022/11/23 00:49:30;;;;;;;8.82;3.80;;;7.70;99.90;;;;;;5057098;28;20025;-71
2022/11/23 00:51:55;;;;;;;10.57;3.65;;;7.60;99.90;;;;;;5055910;28;20028;-71
2022/11/23 00:54:21;;;;;;;8.18;3.58;;;7.50;99.90;;;;;;5055349;28;20158;-72
2022/11/23 00:56:47;;;;;;;8.13;3.30;;;7.50;99.90;;;;;;5055247;28;20017;-71
2022/11/23 00:59:12;;;;;;;12.25;3.88;;;7.60;99.90;;;;;;5057434;28;20021;-71
2022/11/23 01:01:38;;;;;;;9.43;3.30;;;7.60;99.90;;;;;;5056065;28;20032;-71
2022/11/23 01:04:06;;;;;;;10.00;3.42;;;7.80;99.90;;;;;;5056105;28;20032;-71
2022/11/23 01:06:36;;;;;;;8.25;2.92;;;7.80;99.90;;;;;;5054907;28;20029;-71
2022/11/23 01:09:08;;;;;;;6.35;2.47;;;7.80;99.90;;;;;;5056160;28;20025;-71
2022/11/23 01:11:34;;;;;;;7.25;2.50;;;7.90;99.90;;;;;;5055242;28;20021;-71
2022/11/23 01:13:59;;;;;;;6.43;2.95;;;7.90;99.90;;;;;;5056723;28;20025;-71
2022/11/23 01:16:29;;;;;;;7.13;3.22;;;7.90;99.90;;;;;;5054720;28;20123;-71
2022/11/23 01:18:56;;;;;;;9.00;3.05;;;7.70;99.90;;;;;;5054371;28;20021;-71
2022/11/23 01:21:23;;;;;;;7.82;2.75;;;7.80;99.90;;;;;;5054286;28;20029;-68
2022/11/23 01:23:48;;;;;;;4.65;2.40;;;7.70;99.90;;;;;;5054678;28;20095;-70
2022/11/23 01:26:14;;;;;;;8.02;2.85;;;7.80;99.90;;;;;;5055899;28;20029;-69
2022/11/23 01:28:40;;;;;;;10.55;2.70;;;7.70;99.90;;;;;;5054461;28;20078;-68
2022/11/23 01:31:09;;;;;;;10.40;2.67;;;7.70;99.90;;;;;;5055748;28;20090;-68
2022/11/23 01:33:35;;;;;;;4.38;1.95;;;7.80;99.90;;;;;;5053833;28;20029;-68
2022/11/23 01:36:07;;;;;;;5.15;2.10;;;7.90;99.90;;;;;;5055304;28;20024;-68
2022/11/23 01:38:32;;;;;;;8.27;2.67;;;7.90;99.90;;;;;;5055217;28;20025;-68
2022/11/23 01:40:58;;;;;;;8.65;2.08;;;7.90;99.90;;;;;;5054959;28;20039;-68
2022/11/23 01:43:23;;;;;;;9.48;2.63;;;7.90;99.90;;;;;;5053674;28;20024;-68
2022/11/23 01:45:52;;;;;;;6.13;2.05;;;7.90;99.90;;;;;;5053681;28;20025;-68
2022/11/23 01:48:23;;;;;;;8.80;2.40;;;7.90;99.90;;;;;;5054379;28;20064;-68
2022/11/23 01:50:51;;;;;;;10.98;2.33;;;8.00;99.90;;;;;;5055475;28;20021;-68
2022/11/23 01:53:17;;;;;;;8.30;2.60;;;8.10;99.90;;;;;;5055627;28;20515;-68
2022/11/23 01:55:46;;;;;;;5.28;2.10;;;8.10;99.90;;;;;;5055185;28;20079;-69
2022/11/23 01:58:15;;;;;;;2.75;1.80;;;8.10;99.90;;;;;;5053747;28;20021;-69
2022/11/23 02:00:41;;;;;;;5.13;2.50;;;8.10;99.90;;;;;;5053997;28;20028;-70
2022/11/23 02:03:08;;;;;;;8.55;1.90;;;8.10;99.90;;;;;;5054820;28;20032;-70
2022/11/23 02:05:42;;;;;;;6.75;1.80;;;8.10;99.90;;;;;;5053524;28;20078;-69
2022/11/23 02:08:08;;;;;;;7.15;2.00;;;8.10;99.90;;;;;;5054825;28;20025;-68
2022/11/23 02:10:35;;;;;;;11.73;2.20;;;8.10;99.90;;;;;;5056988;28;20029;-69
2022/11/23 02:13:08;;;;;;;8.25;2.33;;;8.10;99.90;;;;;;5053838;28;20053;-69
2022/11/23 02:15:35;;;;;;;7.25;1.90;;;8.10;99.90;;;;;;5054662;28;20484;-69
2022/11/23 02:18:04;;;;;;;9.05;1.55;;;8.20;99.90;;;;;;5053418;28;20021;-69
2022/11/23 02:20:30;;;;;;;6.38;1.85;;;8.10;99.90;;;;;;5053211;28;20035;-69
2022/11/23 02:23:33;;;;;;;9.65;2.03;;;8.10;99.90;;;;;;5054453;28;20025;-69
2022/11/23 02:26:20;;;;;;;9.75;2.20;;;8.20;99.90;;;;;;5054142;28;20024;-71
2022/11/23 02:28:56;;;;;;;5.43;1.95;;;8.00;99.90;;;;;;5053110;28;20083;-69
2022/11/23 02:31:21;;;;;;;6.97;2.33;;;7.90;99.90;;;;;;5053804;28;20126;-69
2022/11/23 02:33:47;;;;;;;3.65;1.70;;;8.00;99.90;;;;;;5054436;28;20088;-68
2022/11/23 02:36:43;;;;;;;8.63;2.65;;;7.90;99.90;;;;;;5052758;28;20021;-69
2022/11/23 02:39:17;;;;;;;6.88;1.40;;;7.90;99.90;;;;;;5053012;28;20021;-69
2022/11/23 02:41:47;;;;;;;7.55;1.80;;;7.80;99.90;;;;;;5053625;28;20440;-69
2022/11/23 02:44:32;;;;;;;7.10;1.83;;;7.80;99.90;;;;;;5053398;28;20039;-68
2022/11/23 02:46:58;;;;;;;8.00;2.00;;;7.80;99.90;;;;;;5052940;28;20032;-68
2022/11/23 02:49:24;;;;;;;10.63;2.22;;;7.70;99.90;;;;;;5054398;28;20037;-69
2022/11/23 02:51:50;;;;;;;9.85;1.80;;;7.70;99.90;;;;;;5054107;28;20052;-68
2022/11/23 02:54:15;;;;;;;9.32;2.70;;;7.50;99.90;;;;;;5053118;28;20115;-70
2022/11/23 02:56:41;;;;;;;12.93;2.00;;;7.50;99.90;;;;;;5053450;28;20111;-71
2022/11/23 02:59:07;;;;;;;6.45;2.03;;;7.50;99.90;;;;;;5053674;28;20025;-71
2022/11/23 03:01:32;;;;;;;6.25;1.83;;;7.60;99.90;;;;;;5053867;28;20053;-68
2022/11/23 03:03:58;;;;;;;8.27;1.98;;;7.80;99.90;;;;;;5052501;28;20048;-68
2022/11/23 03:06:24;;;;;;;8.27;1.88;;;7.80;99.90;;;;;;5052594;28;20032;-68
2022/11/23 03:08:49;;;;;;;6.28;1.70;;;7.70;99.90;;;;;;5053388;28;20029;-68
2022/11/23 03:11:15;;;;;;;10.63;1.65;;;7.80;99.90;;;;;;5053389;28;20025;-71
2022/11/23 03:13:41;;;;;;;10.45;1.70;;;7.80;99.90;;;;;;5053495;28;20043;-71
2022/11/23 03:16:07;;;;;;;6.35;1.67;;;7.80;99.90;;;;;;5053866;28;20033;-71
2022/11/23 03:18:32;;;;;;;8.38;2.05;;;7.70;99.90;;;;;;5053062;28;20025;-73
2022/11/23 03:21:03;;;;;;;6.30;1.83;;;7.60;99.90;;;;;;5052135;28;20028;-73
2022/11/23 03:23:28;;;;;;;6.45;2.35;;;7.60;99.90;;;;;;5052013;28;20032;-73
2022/11/23 03:25:56;;;;;;;9.43;2.05;;;7.60;99.90;;;;;;5053403;28;20025;-71
2022/11/23 03:28:22;;;;;;;9.60;2.17;;;7.70;99.90;;;;;;5053449;28;20035;-71
2022/11/23 03:30:47;;;;;;;11.40;2.30;;;7.90;99.90;;;;;;5051800;28;20041;-71
2022/11/23 03:33:13;;;;;;;11.38;2.10;;;7.80;99.90;;;;;;5052335;28;20075;-71
2022/11/23 03:35:39;;;;;;;8.70;1.73;;;7.90;99.90;;;;;;5051825;28;20017;-71
2022/11/23 03:38:04;;;;;;;11.10;2.60;;;7.90;99.90;;;;;;5055784;28;20028;-70
2022/11/23 03:40:30;;;;;;;6.90;1.30;;;8.00;99.90;;;;;;5052060;28;20025;-70
2022/11/23 03:42:56;;;;;;;6.57;1.52;;;8.20;99.90;;;;;;5052523;28;20024;-70
2022/11/23 03:45:22;;;;;;;7.88;2.25;;;8.20;99.90;;;;;;5052964;28;20025;-70
2022/11/23 03:47:47;;;;;;;6.65;1.50;;;8.10;99.90;;;;;;5052933;28;20055;-70
2022/11/23 03:50:13;;;;;;;9.68;1.83;;;8.10;99.90;;;;;;5053459;28;20025;-70
2022/11/23 03:52:38;;;;;;;7.18;1.88;;;8.20;99.90;;;;;;5051822;28;20054;-71
2022/11/23 03:55:04;;;;;;;7.07;1.48;;;8.30;99.90;;;;;;5053436;28;20022;-71
2022/11/23 03:57:30;;;;;;;4.07;1.70;;;8.30;99.90;;;;;;5052269;28;20017;-71
2022/11/23 03:59:55;;;;;;;6.47;1.80;;;8.40;99.90;;;;;;5052643;28;20376;-72
2022/11/23 04:02:21;;;;;;;6.40;1.73;;;8.40;99.90;;;;;;5051811;28;20075;-71
2022/11/23 04:04:46;;;;;;;2.92;1.40;;;8.40;99.90;;;;;;5052092;28;20029;-72
2022/11/23 04:07:12;;;;;;;6.68;1.60;;;8.40;99.90;;;;;;5053238;28;20025;-72
2022/11/23 04:09:37;;;;;;;6.72;1.83;;;8.30;99.90;;;;;;5051972;28;20488;-72
2022/11/23 04:12:03;;;;;;;7.72;1.90;;;8.20;99.90;;;;;;5051837;28;20025;-72
2022/11/23 04:14:29;;;;;;;9.85;1.95;;;8.20;99.90;;;;;;5052075;28;20024;-71
2022/11/23 04:16:55;;;;;;;9.50;1.75;;;8.20;99.90;;;;;;5051720;28;20018;-72
2022/11/23 04:19:20;;;;;;;6.55;1.88;;;8.30;99.90;;;;;;5053329;28;20037;-72
2022/11/23 04:21:46;;;;;;;9.18;1.85;;;8.30;99.90;;;;;;5053199;28;20032;-71
2022/11/23 04:24:11;;;;;;;7.65;1.90;;;8.30;99.90;;;;;;5052562;28;20091;-71
2022/11/23 04:26:37;;;;;;;5.75;2.28;;;8.50;99.90;;;;;;5052533;28;20033;-71
2022/11/23 04:29:02;;;;;;;7.25;2.13;;;8.50;99.90;;;;;;5052143;28;20025;-71
2022/11/23 04:31:28;;;;;;;9.30;1.95;;;8.40;99.90;;;;;;5052699;28;20037;-71
2022/11/23 04:33:55;;;;;;;6.35;1.60;;;8.40;99.90;;;;;;5052834;28;20025;-71
2022/11/23 04:36:20;;;;;;;10.15;1.92;;;8.30;99.90;;;;;;5051482;28;20028;-71
2022/11/23 04:38:46;;;;;;;2.90;1.58;;;8.40;99.90;;;;;;5053953;28;20021;-71
2022/11/23 04:41:11;;;;;;;6.38;1.48;;;8.40;99.90;;;;;;5054987;28;20025;-71
2022/11/23 04:43:37;;;;;;;6.78;2.15;;;8.40;99.90;;;;;;5054829;28;20029;-71
2022/11/23 04:46:03;;;;;;;4.47;1.58;;;8.40;99.90;;;;;;5055998;28;20044;-71
2022/11/23 04:48:28;;;;;;;5.95;1.92;;;8.40;99.90;;;;;;5054650;28;20021;-71
2022/11/23 04:50:54;;;;;;;8.68;2.65;;;8.40;99.90;;;;;;5055965;28;20025;-71
2022/11/23 04:53:19;;;;;;;9.48;2.20;;;8.40;99.90;;;;;;5055841;28;20072;-71
2022/11/23 04:55:46;;;;;;;8.23;1.90;;;8.40;99.90;;;;;;5054459;28;20063;-71
2022/11/23 04:58:11;;;;;;;8.65;2.47;;;8.30;99.90;;;;;;5054400;28;20024;-71
2022/11/23 05:00:37;;;;;;;9.13;2.92;;;8.20;99.90;;;;;;5055836;28;20028;-71
2022/11/23 05:03:02;;;;;;;12.73;2.28;;;8.30;99.90;;;;;;5055692;28;20096;-71
2022/11/23 05:05:28;;;;;;;9.15;3.40;;;8.30;99.90;;;;;;5054381;28;20439;-71
2022/11/23 05:07:55;;;;;;;5.38;2.00;;;8.10;99.90;;;;;;5054216;28;20035;-71
2022/11/23 05:10:21;;;;;;;9.07;2.40;;;8.10;99.90;;;;;;5055372;28;20579;-71
2022/11/23 05:12:46;;;;;;;11.10;2.25;;;8.10;99.90;;;;;;5055335;28;20063;-71
2022/11/23 05:15:15;;;;;;;10.18;2.40;;;8.20;99.90;;;;;;5054147;28;20022;-71
2022/11/23 05:17:41;;;;;;;5.28;2.25;;;8.20;99.90;;;;;;5054103;28;20075;-71
2022/11/23 05:20:07;;;;;;;10.57;2.40;;;8.20;99.90;;;;;;5055485;28;20404;-71
2022/11/23 05:22:33;;;;;;;10.23;2.70;;;8.20;99.90;;;;;;5054345;28;20117;-71
2022/11/23 05:24:58;;;;;;;10.70;2.55;;;8.10;99.90;;;;;;5054418;28;20071;-71
2022/11/23 05:27:24;;;;;;;11.18;2.92;;;8.00;99.90;;;;;;5054217;28;20033;-71
2022/11/23 05:29:50;;;;;;;8.68;2.90;;;7.80;99.90;;;;;;5054334;28;20036;-71
2022/11/23 05:32:15;;;;;;;8.07;2.60;;;7.90;99.90;;;;;;5055458;28;20560;-71
2022/11/23 05:34:41;;;;;;;8.88;3.10;;;7.90;99.90;;;;;;5053802;28;20028;-71
2022/11/23 05:37:06;;;;;;;13.18;3.28;;;7.80;99.90;;;;;;5053964;28;20024;-71
2022/11/23 05:39:32;;;;;;;11.20;2.70;;;7.80;99.90;;;;;;5053619;28;20028;-71
2022/11/23 05:41:58;;;;;;;13.63;3.47;;;7.70;99.90;;;;;;5054925;28;20060;-71
2022/11/23 05:44:23;;;;;;;11.18;2.72;;;7.50;99.90;;;;;;5053911;28;20029;-71
2022/11/23 05:46:49;;;;;;;14.80;3.08;;;7.50;99.90;;;;;;5053559;28;20016;-71
2022/11/23 05:49:14;;;;;;;5.15;2.67;;;7.60;99.90;;;;;;5053538;28;20033;-71
2022/11/23 05:51:40;;;;;;;12.43;2.70;;;7.60;99.90;;;;;;5054562;28;20078;-71
2022/11/23 05:54:05;;;;;;;14.85;3.97;;;7.60;99.90;;;;;;5053473;28;20021;-71
2022/11/23 05:56:31;;;;;;;8.48;3.38;;;7.40;99.90;;;;;;5054574;28;20104;-71
2022/11/23 05:58:56;;;;;;;12.77;3.00;;;7.30;99.90;;;;;;5053389;28;20055;-71
2022/11/23 06:01:22;;;;;;;19.23;3.55;;;7.20;99.90;;;;;;5053264;28;20028;-71
2022/11/23 06:03:51;;;;;;;11.40;3.55;;;7.30;99.90;;;;;;5054524;28;20032;-71
2022/11/23 06:06:16;;;;;;;7.80;2.90;;;7.30;99.90;;;;;;5054458;28;20033;-71
2022/11/23 06:08:42;;;;;;;12.23;3.55;;;7.40;99.90;;;;;;5053057;28;20028;-71
2022/11/23 06:11:07;;;;;;;19.73;3.75;;;7.40;99.90;;;;;;5054286;28;20025;-71
2022/11/23 06:13:33;;;;;;;11.45;3.33;;;7.40;99.90;;;;;;5054313;28;20017;-71
2022/11/23 06:15:58;;;;;;;8.55;2.97;;;7.30;99.90;;;;;;5053006;28;20049;-71
2022/11/23 06:18:24;;;;;;;16.67;3.47;;;7.20;99.90;;;;;;5054118;28;20056;-71
2022/11/23 06:20:49;;;;;;;14.10;3.50;;;7.30;99.90;;;;;;5053536;28;20029;-71
2022/11/23 06:23:15;;;;;;;9.93;3.05;;;7.30;99.90;;;;;;5052863;28;20111;-71
2022/11/23 06:25:40;;;;;;;11.05;3.55;;;7.40;99.90;;;;;;5052934;28;20051;-71
2022/11/23 06:28:06;;;;;;;10.05;2.78;;;7.50;99.90;;;;;;5053569;28;20032;-71
2022/11/23 06:30:32;;;;;;;12.73;3.25;;;7.70;99.90;;;;;;5053965;28;20494;-71
2022/11/23 06:33:00;;;;;;;12.80;3.65;;;7.70;99.90;;;;;;5054310;28;20033;-71
2022/11/23 06:35:26;;;;;;;12.40;3.90;;;7.80;99.90;;;;;;5052669;28;20025;-71
2022/11/23 06:37:53;;;;;;;9.77;3.83;;;7.80;99.90;;;;;;5052632;28;20095;-71
2022/11/23 06:40:19;;;;;;;12.38;3.78;;;7.80;99.90;;;;;;5052467;28;20025;-71
2022/11/23 06:42:45;;;;;;;16.00;3.60;;;7.70;99.90;;;;;;5053775;28;20033;-71
2022/11/23 06:45:11;;;;;;;10.93;2.80;;;7.70;99.90;;;;;;5053266;28;20020;-71
2022/11/23 06:47:36;;;;;;;12.75;3.67;;;7.80;99.90;;;;;;5053760;28;20070;-71
2022/11/23 06:50:02;;;;;;;9.98;3.63;;;7.90;99.90;;;;;;5052306;28;20111;-71
2022/11/23 06:52:28;;;;;;;14.52;3.67;;;7.90;99.90;;;;;;5052773;28;20098;-71
2022/11/23 06:54:54;;;;;;;15.13;4.50;;;8.00;99.90;;;;;;5052308;28;20155;-71
2022/11/23 06:57:19;;;;;;;14.68;4.43;;;7.80;99.90;;;;;;5053746;28;20079;-71
2022/11/23 06:59:45;;;;;;;6.90;3.28;;;7.80;99.90;;;;;;5053358;28;20032;-71
2022/11/23 07:02:11;;;;;;;15.20;4.32;;;7.80;99.90;;;;;;5053068;28;20021;-71
2022/11/23 07:04:37;;;;;;;13.77;3.63;;;7.60;99.90;;;;;;5052301;28;20024;-71
2022/11/23 07:07:02;;;;;;;12.60;4.07;;;7.70;99.90;;;;;;5053352;28;20109;-71
2022/11/23 07:09:28;;;;;;;7.30;3.22;;;7.80;99.90;;;;;;5052055;28;20052;-71
2022/11/23 07:11:54;;;;;;;8.48;4.20;;;7.70;99.90;;;;;;5053270;28;20025;-71
2022/11/23 07:14:19;;;;;;;11.13;4.03;;;7.80;99.90;;;;;;5052024;28;20017;-71
2022/11/23 07:16:45;;;;;;;13.88;4.32;;;7.70;99.90;;;;;;5052340;28;20056;-71
2022/11/23 07:19:10;;;;;;;13.88;4.57;;;7.80;99.90;;;;;;5051959;28;20025;-71
2022/11/23 07:21:36;;;;;;;22.77;4.72;;;7.90;99.90;;;;;;5053138;28;20078;-71
2022/11/23 07:24:01;;;;;;;11.88;4.70;;;7.80;99.90;;;;;;5053188;28;20025;-71
2022/11/23 07:26:27;;;;;;;9.88;4.72;;;7.90;99.90;;;;;;5053386;28;20029;-71
2022/11/23 07:28:52;;;;;;;10.70;4.22;;;7.90;99.90;;;;;;5053043;28;20105;-71
2022/11/23 07:31:18;;;;;;;14.23;4.60;;;8.00;99.90;;;;;;5051518;28;20021;-71
2022/11/23 07:33:44;;;;;;;14.45;4.72;;;8.00;99.90;;;;;;5051785;28;20031;-71
2022/11/23 07:36:10;;;;;;;12.68;4.25;;;8.00;99.90;;;;;;5052340;28;20021;-71
2022/11/23 07:38:36;;;;;;;8.27;4.75;;;8.10;99.90;;;;;;5052941;28;20071;-71
2022/11/23 07:41:02;;;;;;;20.35;5.10;;;8.10;99.90;;;;;;5051572;28;20025;-71
2022/11/23 07:43:28;;;;;;;10.25;4.35;;;8.20;99.90;;;;;;5053195;28;20025;-71
2022/11/23 07:45:57;;;;;;;8.57;4.03;;;8.10;99.90;;;;;;5051704;28;20092;-71
2022/11/23 07:48:23;;;;;;;12.35;4.35;;;8.10;99.90;;;;;;5052207;28;20090;-71
2022/11/23 07:50:53;;;;;;;16.48;4.93;;;8.00;99.90;;;;;;5051901;28;20051;-71
2022/11/23 07:53:19;;;;;;;13.07;4.65;;;8.10;99.90;;;;;;5052850;28;20052;-71
2022/11/23 07:55:45;;;;;;;10.10;4.95;;;8.10;99.90;;;;;;5053073;28;20407;-71
2022/11/23 07:58:11;;;;;;;16.77;4.95;;;8.10;99.90;;;;;;5051616;28;20017;-71
2022/11/23 08:00:37;;;;;;;20.35;4.95;;;7.90;99.90;;;;;;5052759;28;20075;-71
2022/11/23 08:03:02;;;;;;;15.07;5.22;;;7.80;99.90;;;;;;5051582;28;20025;-72
2022/11/23 08:05:30;;;;;;;17.02;5.55;;;7.80;99.90;;;;;;5051555;28;20161;-72
2022/11/23 08:08:00;;;;;;;14.15;5.47;;;7.70;99.90;;;;;;5051799;28;20036;-72
2022/11/23 08:10:31;;;;;;;12.40;5.43;;;7.60;99.90;;;;;;5051282;28;20029;-71
2022/11/23 08:12:58;;;;;;;11.95;5.40;;;7.60;99.90;;;;;;5054186;28;20188;-71
2022/11/23 08:15:26;;;;;;;11.40;4.95;;;7.60;99.90;;;;;;5056571;28;20032;-71
2022/11/23 08:17:57;;;;;;;12.82;5.30;;;7.50;99.90;;;;;;5055208;28;20029;-71
2022/11/23 08:20:23;;;;;;;12.30;5.00;;;7.50;99.90;;;;;;5055168;28;20032;-71
2022/11/23 08:22:48;;;;;;;10.73;4.47;;;7.80;99.90;;;;;;5055965;28;20028;-71
2022/11/23 08:25:14;;;;;;;16.25;4.60;;;7.90;99.90;;;;;;5056488;28;20028;-71
2022/11/23 08:27:40;;;;;;;10.43;5.55;;;7.80;99.90;;;;;;5055898;28;20048;-71
2022/11/23 08:30:06;;;;;;;12.60;5.43;;;7.70;99.90;;;;;;5056107;28;20025;-71
2022/11/23 08:32:31;;;;;;;12.80;5.80;;;7.80;99.90;;;;;;5055810;28;20021;-71
2022/11/23 08:34:57;;;;;;;11.15;5.30;;;7.80;99.90;;;;;;5056203;28;20029;-71
2022/11/23 08:37:22;;;;;;;12.32;5.85;;;8.00;99.90;;;;;;5055219;28;20025;-71
2022/11/23 08:39:48;;;;;;;15.70;5.03;;;8.00;99.90;;;;;;5054863;28;20067;-71
2022/11/23 08:42:14;;;;;;;15.15;4.95;;;8.10;99.90;;;;;;5056027;28;20052;-70
2022/11/23 08:44:39;;;;;;;10.25;5.35;;;8.20;99.90;;;;;;5055635;28;20070;-70
2022/11/23 08:47:05;;;;;;;14.70;6.07;;;8.30;99.90;;;;;;5054993;28;20025;-70
2022/11/23 08:49:30;;;;;;;15.07;4.50;;;8.20;99.90;;;;;;5055909;28;20033;-70
2022/11/23 08:51:56;;;;;;;8.60;4.70;;;8.20;99.90;;;;;;5054529;28;20025;-70
2022/11/23 08:54:24;;;;;;;11.88;4.85;;;8.30;99.90;;;;;;5056144;28;20017;-70
2022/11/23 08:56:50;;;;;;;13.23;4.25;;;8.30;99.90;;;;;;5054477;28;20056;-70
2022/11/23 08:59:16;;;;;;;15.43;4.03;;;8.20;99.90;;;;;;5054453;28;20025;-70
2022/11/23 09:01:42;;;;;;;7.75;4.00;;;8.30;99.90;;;;;;5055233;28;20024;-70
2022/11/23 09:04:08;;;;;;;14.20;4.57;;;8.30;99.90;;;;;;5054753;28;20028;-70
2022/11/23 09:07:01;;;;;;;12.90;4.63;;;8.40;99.90;;;;;;5054312;28;20098;-70
2022/11/23 09:09:27;;;;;;;13.68;4.25;;;8.40;99.90;;;;;;5054545;28;20029;-70
2022/11/23 09:11:52;;;;;;;11.30;4.25;;;8.50;99.90;;;;;;5054678;28;20124;-70
2022/11/23 09:14:18;;;;;;;14.73;5.00;;;8.50;99.90;;;;;;5054535;28;20059;-70
2022/11/23 09:16:44;;;;;;;11.25;4.70;;;8.60;99.90;;;;;;5054251;28;20059;-72
2022/11/23 09:19:12;;;;;;;11.85;4.32;;;8.70;99.90;;;;;;5054083;28;20063;-71
2022/11/23 09:21:38;;;;;;;13.55;5.05;;;8.80;99.90;;;;;;5053935;28;20033;-72
2022/11/23 09:24:04;;;;;;;14.93;4.90;;;8.80;99.90;;;;;;5054967;28;20028;-71
2022/11/23 09:26:32;;;;;;;10.77;4.00;;;8.90;99.90;;;;;;5053979;28;20021;-71
2022/11/23 09:28:58;;;;;;;10.23;3.78;;;9.00;99.90;;;;;;5054745;28;20112;-71
2022/11/23 09:31:25;;;;;;;7.50;3.85;;;9.00;99.90;;;;;;5055341;28;20171;-71
2022/11/23 09:33:54;;;;;;;15.70;4.47;;;9.10;99.90;;;;;;5053799;28;20028;-71
2022/11/23 09:36:21;;;;;;;8.40;3.78;;;9.10;99.90;;;;;;5055305;28;20075;-71
2022/11/23 09:38:50;;;;;;;9.75;4.25;;;9.10;99.90;;;;;;5053770;28;20048;-71
2022/11/23 09:41:53;;;;;;;11.32;3.90;;;9.20;99.90;;;;;;5054907;28;20036;-71
2022/11/23 09:44:51;;;;;;;7.00;3.40;;;9.30;99.90;;;;;;5055232;28;20025;-71
2022/11/23 09:47:46;;;;;;;9.50;3.55;;;9.50;99.90;;;;;;5054878;28;20017;-71
2022/11/23 09:50:39;;;;;;;9.38;3.47;;;9.60;99.90;;;;;;5055162;28;20535;-70
2022/11/23 09:53:11;;;;;;;5.65;3.00;;;9.70;99.90;;;;;;5054917;28;20017;-70
2022/11/23 09:55:49;;;;;;;11.98;3.83;;;9.90;99.90;;;;;;5053555;28;20071;-72
2022/11/23 09:58:20;;;;;;;9.15;3.55;;;9.90;99.90;;;;;;5055091;28;20072;-72
2022/11/23 10:01:04;;;;;;;11.40;4.47;;;10.00;99.90;;;;;;5053945;28;20116;-72
2022/11/23 10:03:40;;;;;;;10.27;4.10;;;10.10;99.90;;;;;;5053228;28;20074;-72
2022/11/23 10:06:30;;;;;;;9.05;4.47;;;10.20;99.90;;;;;;5053792;28;20029;-72
2022/11/23 10:09:21;;;;;;;13.88;5.22;;;10.20;99.90;;;;;;5054163;28;20087;-72
2022/11/23 10:11:56;;;;;;;11.15;3.65;;;10.30;99.90;;;;;;5054230;28;20025;-71
2022/11/23 10:14:35;;;;;;;12.02;3.78;;;10.20;99.90;;;;;;5054654;28;20031;-72
2022/11/23 10:17:25;;;;;;;12.38;4.10;;;10.30;99.90;;;;;;5053048;28;20025;-72
2022/11/23 10:19:53;;;;;;;8.70;3.40;;;10.20;99.90;;;;;;5053881;28;20021;-72
2022/11/23 10:22:26;;;;;;;9.63;3.58;;;10.30;99.90;;;;;;5052907;28;20021;-72
2022/11/23 10:25:03;;;;;;;10.55;3.60;;;10.40;99.90;;;;;;5052851;28;20025;-72
2022/11/23 10:27:30;;;;;;;9.05;3.42;;;10.20;99.90;;;;;;5052884;28;20032;-73
2022/11/23 10:29:57;;;;;;;8.32;3.15;;;10.30;99.90;;;;;;5053528;28;20033;-71
2022/11/23 10:32:44;;;;;;;9.05;3.15;;;10.40;99.90;;;;;;5052790;28;20025;-73
2022/11/23 10:35:24;;;;;;;9.05;3.22;;;10.50;99.90;;;;;;5052013;28;20505;-72
2022/11/23 10:37:49;;;;;;;11.27;3.05;;;10.60;99.90;;;;;;5053898;28;20114;-71
2022/11/23 10:40:24;;;;;;;8.00;2.58;;;10.60;99.90;;;;;;5054148;28;20056;-72
2022/11/23 10:42:57;;;;;;;7.18;2.97;;;10.50;99.90;;;;;;5054061;28;20499;-72
2022/11/23 10:45:26;;;;;;;10.07;2.88;;;10.40;99.90;;;;;;5052518;28;20036;-72
2022/11/23 10:47:59;;;;;;;6.63;2.38;;;10.40;99.90;;;;;;5053976;28;20047;-72
2022/11/23 10:50:29;;;;;;;3.95;2.15;;;10.40;99.90;;;;;;5053536;28;20108;-71
2022/11/23 10:53:21;;;;;;;8.77;2.67;;;10.50;99.90;;;;;;5053929;28;20021;-72
2022/11/23 10:55:46;;;;;;;9.70;2.13;;;10.40;99.90;;;;;;5052419;28;20029;-72
2022/11/23 10:58:28;;;;;;;14.82;2.33;;;10.10;99.90;;;;;;5051986;28;20047;-72
2022/11/23 11:01:02;;;;;;;8.25;1.73;;;10.10;99.90;;;;;;5052155;28;20021;-72
2022/11/23 11:03:32;;;;;;;17.38;2.78;;;10.20;99.90;;;;;;5053390;28;20072;-72
2022/11/23 11:05:58;;;;;;;10.65;2.67;;;10.10;99.90;;;;;;5053361;28;20396;-72
2022/11/23 11:08:30;;;;;;;7.97;1.77;;;10.10;99.90;;;;;;5053396;28;20025;-72
2022/11/23 11:11:00;;;;;;;9.77;2.00;;;10.10;99.90;;;;;;5052579;28;20025;-72
2022/11/23 11:13:39;;;;;;;6.10;2.10;;;9.80;99.90;;;;;;5052039;28;20018;-72
2022/11/23 11:16:16;;;;;;;6.25;1.83;;;10.00;99.90;;;;;;5052637;28;20044;-72
2022/11/23 11:18:42;;;;;;;11.70;2.15;;;10.10;99.90;;;;;;5051964;28;20021;-71
2022/11/23 11:21:40;;;;;;;7.18;1.77;;;9.80;99.90;;;;;;5051928;28;20050;-71
2022/11/23 11:24:20;;;;;;;10.60;1.80;;;10.00;99.90;;;;;;5053466;28;20032;-72
2022/11/23 11:26:58;;;;;;;10.43;1.55;;;10.30;99.90;;;;;;5052395;28;20075;-72
2022/11/23 11:29:43;;;;;;;8.88;2.00;;;10.50;99.90;;;;;;5053257;28;20060;-72
2022/11/23 11:32:12;;;;;;;14.90;2.97;;;10.80;99.90;;;;;;5052891;28;20112;-71
2022/11/23 11:34:49;;;;;;;13.02;1.20;;;11.10;99.90;;;;;;5053076;28;20107;-71
2022/11/23 11:37:39;;;;;;;11.63;1.73;;;11.40;99.90;;;;;;5052000;28;20061;-72
2022/11/23 11:40:11;;;;;;;4.80;1.63;;;11.50;99.90;;;;;;5052555;28;20024;-71
2022/11/23 11:43:32;;;;;;;9.93;2.65;;;11.50;99.90;;;;;;5053000;28;20025;-72
2022/11/23 11:46:04;;;;;;;5.10;1.10;;;11.70;99.90;;;;;;5053311;28;20021;-71
2022/11/23 11:48:48;;;;;;;7.68;1.13;;;11.90;99.90;;;;;;5055961;28;20022;-72
2022/11/23 11:51:30;;;;;;;9.40;1.17;;;11.70;99.90;;;;;;5055742;28;20032;-71
2022/11/23 11:54:19;;;;;;;3.70;1.10;;;11.60;99.90;;;;;;5056745;28;20048;-71
2022/11/23 11:56:48;;;;;;;11.23;1.48;;;11.90;99.90;;;;;;5056594;28;20116;-71
2022/11/23 11:59:29;;;;;;;6.45;1.33;;;11.90;99.90;;;;;;5056458;28;20017;-72
2022/11/23 12:02:18;;;;;;;7.18;1.38;;;11.80;99.90;;;;;;5056819;28;20048;-72
2022/11/23 12:04:55;;;;;;;8.63;1.80;;;12.10;99.90;;;;;;5055544;28;20032;-72
2022/11/23 12:07:31;;;;;;;9.95;1.50;;;12.40;99.90;;;;;;5055543;28;20048;-72
2022/11/23 12:10:26;;;;;;;10.98;2.92;;;12.50;99.90;;;;;;5055288;28;20021;-71
2022/11/23 12:12:51;;;;;;;7.32;1.45;;;12.60;99.90;;;;;;5053948;28;20033;-72
2022/11/23 12:15:20;;;;;;;9.32;1.75;;;12.40;99.90;;;;;;5056618;28;20021;-72
2022/11/23 12:18:12;;;;;;;9.13;1.65;;;12.60;99.90;;;;;;5055348;28;20024;-72
2022/11/23 12:21:02;;;;;;;5.95;1.42;;;12.60;99.90;;;;;;5054965;28;20049;-70
2022/11/23 12:23:38;;;;;;;5.35;1.55;;;12.70;99.90;;;;;;5056770;28;20108;-70
2022/11/23 12:26:13;;;;;;;3.08;1.02;;;12.90;99.90;;;;;;5056614;28;20048;-70
2022/11/23 12:29:01;;;;;;;4.18;0.95;;;12.90;99.90;;;;;;5055919;28;20037;-70
2022/11/23 12:31:58;;;;;;;6.30;1.05;;;12.70;99.90;;;;;;5056056;28;20102;-70
2022/11/23 12:34:32;;;;;;;8.48;1.70;;;12.90;99.90;;;;;;5055109;28;20025;-70
2022/11/23 12:37:11;;;;;;;8.50;1.35;;;13.00;99.90;;;;;;5056280;28;20021;-70
2022/11/23 12:40:04;;;;;;;7.40;1.45;;;13.20;99.90;;;;;;5055032;28;20029;-70
2022/11/23 12:42:45;;;;;;;10.93;2.35;;;13.20;99.90;;;;;;5056073;28;20021;-70
2022/11/23 12:45:31;;;;;;;8.90;1.30;;;13.10;99.90;;;;;;5054970;28;20120;-70
2022/11/23 12:48:09;;;;;;;5.40;1.33;;;12.90;99.90;;;;;;5056400;28;20029;-70
2022/11/23 12:50:49;;;;;;;9.02;1.33;;;12.40;99.90;;;;;;5055147;28;20051;-70
2022/11/23 12:53:31;;;;;;;9.05;1.58;;;12.40;99.90;;;;;;5053194;28;20083;-69
2022/11/23 12:56:19;;;;;;;7.07;1.65;;;12.50;99.90;;;;;;5053964;28;20123;-70
2022/11/23 12:58:46;;;;;;;10.15;1.60;;;12.90;99.90;;;;;;5053107;28;20021;-69
2022/11/23 13:01:30;;;;;;;4.60;1.10;;;13.10;99.90;;;;;;5054732;28;20051;-69
2022/11/23 13:04:10;;;;;;;8.55;1.50;;;13.30;99.90;;;;;;5054691;28;20033;-69